Tiempo atmosférico en la estación meteorológica de Nuñomoral, Cáceres (475 m.)



Fecha
DESCASC
Temp. máxima en grados centígrados (hora)
DESCASC
Temp. mínima en grados centígrados (hora)
DESCASC
Temp. media en grados centígrados
DESCASC
Racha de viento máxima en m/sg (hora)
DESCASC
Velocidad máxima media en intervalos de 10 minutos(hora)
DESCASC
Precipitaciones diarias en mm
DESCASC
Precipitaciones de 00:00 a 06:00 en mm
DESCASC
Precipitaciones de 06:00 a 12:00 en mm
DESCASC
Precipitaciones de 12:00 a 18:00 en mm
DESCASC
Precipitaciones de 18:00 a 24:00 en mm
DESCASC
24-01-2021 13.3 (14:50) 7.1 (09:20) 10.2 11.39 (06:20) 4.17 (06:30) 0.2 0 0 0 0.2
23-01-2021 14.4 (22:00) 4.1 (05:50) 9.2 16.39 (22:10) 8.06 (22:10) 7 0.4 1.2 2.4 3
22-01-2021 13.2 (03:10) 4.5 (21:40) 8.8 15.28 (05:20) 7.5 (05:20) 10 2 3.8 4.2 0
21-01-2021 12.1 (23:50) 6.9 (00:00) 9.5 11.11 (10:50) 3.89 (23:50) 7.6 0 0.2 2.6 4.8
20-01-2021 10.6 (15:30) 6.7 (00:00) 8.7 14.72 (04:00) 6.39 (04:00) 45.8 6.4 22.4 14.8 2.2
19-01-2021 10.5 (15:20) -3.8 (-00:0) 3.4 8.61 (19:10) 3.61 (14:10) 0 0 0 0 0
18-01-2021 15.9 (16:20) -3.5 (-00:0) 6.2 4.72 (15:00) 2.78 (14:50) 0 0 0 0 0
17-01-2021 18.2 (15:40) -5.1 (-00:0) 6.6 4.17 (17:10) 2.22 (17:00) 0 0 0 0 0
16-01-2021 17.7 (16:00) -4.8 (-00:0) 6.5 4.72 (15:30) 3.06 (15:30) 0 0 0 0 0
15-01-2021 15 (16:10) -3.3 (-00:0) 5.9 7.5 (15:30) 4.17 (15:10) 0 0 0 0 0
14-01-2021 16.7 (15:40) -5.7 (08:20) 5.5 9.72 (17:20) 5.28 (16:50) 0 0 0 0 0
13-01-2021 16.7 (15:40) -6.2 (-00:0) 5.3 5.83 (14:50) 2.78 (14:50) 0 0 0 0 0
12-01-2021 11.6 (14:50) -6.6 (-00:0) 2.5 4.17 (15:30) 3.06 (15:30) 0 0 0 0 0
11-01-2021 6.7 (15:10) -3.3 (-00:0) 1.7 12.22 (12:20) 6.39 (11:10) 0 0 0 0 0
10-01-2021 4.8 (14:30) -4 (06:30) 0.4 9.72 (13:20) 3.33 (23:30) 0 0 0 0 0
09-01-2021 2.8 (13:20) 0.4 (00:00) 1.6 8.06 (09:20) 2.78 (14:00) 0 0 0 0 0
08-01-2021 4.4 (14:40) -4.1 (-00:0) 0.2 4.17 (17:50) 2.22 (13:40) 0 0 0 0 0
07-01-2021 9.5 (15:40) -4 (-00:0) 2.8 5 (13:40) 3.06 (13:30) 0 0 0 0 0
06-01-2021 9.4 (15:40) -6.8 (-00:0) 1.3 3.61 (14:20) 1.94 (14:10) 0 0 0 0 0
05-01-2021 9.2 (15:40) -5.6 (-00:0) 1.8 2.5 (17:20) 1.39 (17:40) 0.2 0 0.2 0 0
04-01-2021 7.5 (14:50) -2.6 (-00:0) 2.5 6.94 (16:00) 3.33 (12:20) 0.2 0.2 0 0 0
03-01-2021 8.3 (16:20) -2.1 (-00:0) 3.1 9.17 (14:10) 5.28 (14:00) 0 0 0 0 0
02-01-2021 8.3 (16:00) -1.2 (-00:0) 3.6 9.44 (12:20) 5.56 (13:10) 0 0 0 0 0
01-01-2021 7 (16:00) 2.2 (00:00) 4.6 9.44 (15:30) 4.72 (02:50) 0.2 0.2 0 0 0
31-12-2020 6.6 (22:00) 1.3 (00:00) 3.9 7.5 (23:50) 3.33 (22:00) 8 0 0.2 1.4 6.4
30-12-2020 9.6 (16:40) -0.2 (00:00) 4.7 9.72 (16:00) 5.28 (16:00) 0 0 0 0 0
29-12-2020 8.9 (14:40) 3 (00:00) 5.9 10 (16:10) 5.28 (16:00) 1.8 0.4 1.2 0 0.2
28-12-2020 9.5 (04:20) 3.8 (00:00) 6.6 16.94 (06:40) 7.22 (05:00) 3.4 2 0.2 0.2 1
27-12-2020 7.9 (16:10) -4.2 (-00:0) 1.9 5.28 (15:00) 2.78 (16:00) 0 0 0 0 0
26-12-2020 12.2 (15:00) -1.9 (-00:0) 5.1 10.28 (12:40) 5.28 (13:10) 0 0 0 0 0

Gráficas

Temp. máximas Temp. mínimas Temp. medias Precipitaciones Rachas de viento máximas Velocidades máximas media en intervalos de 10 minutos

Datos horarios

Fecha y hora oficial Temperatura (ºC) Velocidad del viento (km/h) Dirección del viento Racha (km/h) Dirección de racha Precipitación (mm) Presión (hPa) Tendencia (hPa) Humedad (%)
2021-01-24 23:00:00 8.1 0 Calma 3 Noroeste 0 -- -- 90
2021-01-24 22:00:00 8.3 0 Calma 4 Norte 0 -- -- 89
2021-01-24 21:00:00 8.7 0 Calma 4 Nordeste 0 -- -- 87
2021-01-24 20:00:00 8.9 0 Calma 5 Norte 0 -- -- 85
2021-01-24 19:00:00 10.3 0 Calma 5 Sur 0 -- -- 80
2021-01-24 18:00:00 11.2 2 Sur 8 Este 0 -- -- 73
2021-01-24 17:00:00 12.3 4 Este 17 Noroeste 0 -- -- 64
2021-01-24 16:00:00 13.1 6 Noroeste 14 Sudoeste 0 -- -- 56
2021-01-24 15:00:00 13.3 4 Sudoeste 15 Sudoeste 0 -- -- 54
2021-01-24 14:00:00 12.7 3 Oeste 19 Oeste 0 -- -- 59
2021-01-24 13:00:00 12.4 6 Noroeste 15 Oeste 0 -- -- 60
2021-01-24 12:00:00 11.2 6 Sudoeste 14 Sudoeste 0 -- -- 68
2021-01-24 11:00:00 10 10 Noroeste 24 Oeste 0 -- -- 71
2021-01-24 10:00:00 7.7 2 Oeste 6 Oeste 0 -- -- 84
2021-01-24 09:00:00 7.3 0 Calma 8 Norte 0 -- -- 85
2021-01-24 08:00:00 7.8 2 Este 15 Nordeste 0 -- -- 79
2021-01-24 07:00:00 9.3 9 Oeste 41 Sudoeste 0 -- -- 69
2021-01-24 06:00:00 9.9 8 Oeste 34 Noroeste 0 -- -- 71
2021-01-24 05:00:00 10.4 13 Sudoeste 39 Noroeste 0 -- -- 74
2021-01-24 04:00:00 10.8 13 Oeste 35 Sudoeste 0 -- -- 67
2021-01-24 03:00:00 11.1 9 Sudoeste 26 Sur 0 -- -- 64
2021-01-24 02:00:00 11.1 9 Sudoeste 31 Sudoeste 0 -- -- 64
2021-01-24 01:00:00 10.2 8 Norte 23 Oeste 0 -- -- 73
2021-01-24 00:00:00 10.4 5 Sudeste 41 Oeste 0 -- -- 72
2021-01-23 23:00:00 12.9 13 Oeste 59 Noroeste 0 -- -- 65
2021-01-23 22:00:00 14.4 24 Oeste 49 Oeste 0 -- -- 71
2021-01-23 21:00:00 10.9 3 Sudeste 16 Nordeste 0.8 -- -- 97
2021-01-23 20:00:00 10.4 5 Este 11 Este 0.8 -- -- 98
2021-01-23 19:00:00 10.1 0 Calma 9 Este 1.4 -- -- 96
2021-01-23 18:00:00 10.3 3 Sudeste 14 Noroeste 0.8 -- -- 95
2021-01-23 17:00:00 10.8 9 Sudoeste 30 Sudoeste 0.4 -- -- 88
2021-01-23 16:00:00 10.8 15 Sudoeste 38 Sudoeste 0 -- -- 85
2021-01-23 15:00:00 10.5 13 Sudoeste 37 Sudoeste 0 -- -- 84
2021-01-23 14:00:00 10.2 15 Sudoeste 37 Oeste 0.2 -- -- 85
2021-01-23 13:00:00 7.6 5 Nordeste 21 Sudeste 1 -- -- 97
2021-01-23 12:00:00 6.9 4 Este 11 Sudeste 1.2 -- -- 97
2021-01-23 11:00:00 6.3 0 Calma 6 Nordeste 0 -- -- 98
2021-01-23 10:00:00 5.4 3 Nordeste 9 Norte 0 -- -- 98
2021-01-23 09:00:00 4.4 0 Calma 5 Norte 0 -- -- 98
2021-01-23 08:00:00 4.4 0 Calma 4 Sudeste 0 -- -- 98
2021-01-23 07:00:00 4.4 3 Norte 7 Nordeste 0 -- -- 98
2021-01-23 06:00:00 4.1 0 Calma 4 Sudeste 0 -- -- 97
2021-01-23 05:00:00 4.2 2 Sudeste 5 Sudoeste 0 -- -- 97
2021-01-23 04:00:00 4.5 2 Sudeste 4 Sudeste 0.2 -- -- 97
2021-01-23 03:00:00 4.5 0 Calma 6 Sudeste 0.2 -- -- 97
2021-01-23 02:00:00 4.4 0 Calma 4 Sudeste 0 -- -- 96
2021-01-23 01:00:00 4.3 0 Calma 4 Este 0 -- -- 96
2021-01-23 00:00:00 4.8 3 Nordeste 8 Este 0 -- -- 96
2021-01-22 23:00:00 4.7 0 Calma 4 Oeste 0 -- -- 95
2021-01-22 22:00:00 4.5 0 Calma 4 Sudeste 0 -- -- 94
2021-01-22 21:00:00 4.7 0 Calma 9 Noroeste 0 -- -- 93
2021-01-22 20:00:00 5.3 2 Este 10 Nordeste 0 -- -- 89
2021-01-22 19:00:00 6.9 3 Sur 24 Oeste 0 -- -- 83
2021-01-22 18:00:00 8 5 Noroeste 25 Sudoeste 0 -- -- 78
2021-01-22 17:00:00 8.9 12 Oeste 26 Oeste 0 -- -- 70
2021-01-22 16:00:00 8.4 9 Oeste 30 Sudoeste 0 -- -- 77
2021-01-22 15:00:00 7.7 6 Oeste 22 Oeste 0.2 -- -- 80
2021-01-22 14:00:00 7.2 6 Noroeste 19 Oeste 0.8 -- -- 85
2021-01-22 13:00:00 6 4 Oeste 22 Sudoeste 3.2 -- -- 88
2021-01-22 12:00:00 7 9 Oeste 25 Noroeste 2.6 -- -- 84
2021-01-22 11:00:00 9 8 Oeste 24 Noroeste 0 -- -- 74
2021-01-22 10:00:00 8.3 9 Oeste 24 Sudoeste 0 -- -- 75
2021-01-22 09:00:00 6.6 5 Noroeste 14 Oeste 0 -- -- 87
2021-01-22 08:00:00 7 9 Oeste 42 Oeste 0.8 -- -- 81
2021-01-22 07:00:00 8.4 19 Oeste 52 Oeste 0.4 -- -- 70
2021-01-22 06:00:00 7.8 11 Oeste 55 Oeste 2 -- -- 79
2021-01-22 05:00:00 11.9 25 Oeste 55 Oeste 0 -- -- 59
2021-01-22 04:00:00 12.7 15 Oeste 50 Oeste 0 -- -- 67
2021-01-22 03:00:00 13.1 21 Sudoeste 55 Oeste 0 -- -- 70
2021-01-22 02:00:00 12.5 11 Sur 48 Oeste 0 -- -- 78
2021-01-22 01:00:00 12.1 5 Sur 36 Sudoeste 0 -- -- 78
2021-01-22 00:00:00 12.1 10 Sudoeste 35 Oeste 0 -- -- 80
2021-01-21 23:00:00 10 5 Norte 13 Nordeste 0 -- -- 98
2021-01-21 22:00:00 9.9 3 Nordeste 11 Nordeste 0 -- -- 98
2021-01-21 21:00:00 10 0 Calma 4 Nordeste 1.2 -- -- 97
2021-01-21 20:00:00 10.3 2 Sudoeste 4 Sudeste 1 -- -- 96
2021-01-21 19:00:00 10.7 4 Nordeste 16 Norte 2.6 -- -- 95
2021-01-21 18:00:00 11.4 3 Nordeste 24 Sudoeste 0 -- -- 92
2021-01-21 17:00:00 11.7 4 Noroeste 27 Oeste 0.2 -- -- 88
2021-01-21 16:00:00 11.9 10 Sudoeste 32 Sudoeste 0.2 -- -- 86
2021-01-21 15:00:00 11.1 3 Este 23 Oeste 0.4 -- -- 94
2021-01-21 14:00:00 10.6 4 Este 14 Oeste 1.4 -- -- 95
2021-01-21 13:00:00 10.6 3 Nordeste 15 Sudoeste 0.4 -- -- 94
2021-01-21 12:00:00 10.6 2 Sudeste 26 Sudoeste 0 -- -- 90
2021-01-21 11:00:00 10.6 9 Sudoeste 40 Sudoeste 0 -- -- 84
2021-01-21 10:00:00 8.8 5 Norte 10 Nordeste 0.2 -- -- 99
2021-01-21 09:00:00 8.3 4 Norte 9 Norte 0 -- -- 99
2021-01-21 08:00:00 7.7 0 Calma 9 Nordeste 0 -- -- 99
2021-01-21 07:00:00 7.5 3 Oeste 5 Este 0 -- -- 99
2021-01-21 06:00:00 7.3 0 Calma 5 Sur 0 -- -- 99
2021-01-21 05:00:00 7.1 2 Oeste 4 Norte 0 -- -- 99
2021-01-21 04:00:00 7 2 Oeste 5 Oeste 0 -- -- 99
2021-01-21 03:00:00 7 0 Calma 6 Sudoeste 0 -- -- 99
2021-01-21 02:00:00 7.5 3 Norte 6 Sudoeste 0 -- -- 98
2021-01-21 01:00:00 7.8 0 Calma 4 Nordeste 0 -- -- 98
2021-01-21 00:00:00 8 2 Oeste 6 Sudeste 0.2 -- -- 98
2021-01-20 23:00:00 7.9 2 Norte 6 Nordeste 0 -- -- 98
2021-01-20 22:00:00 7.8 0 Calma 5 Nordeste 0.4 -- -- 98
2021-01-20 21:00:00 7.5 3 Norte 5 Oeste 0 -- -- 97
2021-01-20 20:00:00 8 0 Calma 6 Este 0.4 -- -- 96
2021-01-20 19:00:00 8.6 5 Este 29 Oeste 1.2 -- -- 93
2021-01-20 18:00:00 10.2 4 Norte 9 Noroeste 3.8 -- -- 96
2021-01-20 17:00:00 10.5 3 Oeste 8 Norte 0.8 -- -- 96
2021-01-20 16:00:00 10.5 4 Nordeste 38 Sur 1.2 -- -- 94
2021-01-20 15:00:00 9.8 6 Este 21 Sur 4 -- -- 96
2021-01-20 14:00:00 9.2 4 Nordeste 19 Sur 3.2 -- -- 94
2021-01-20 13:00:00 9.3 6 Sur 36 Sudoeste 1.8 -- -- 91
2021-01-20 12:00:00 8.9 12 Sudoeste 34 Oeste 2.2 -- -- 89
2021-01-20 11:00:00 8 4 Sudoeste 15 Sudeste 2.6 -- -- 94
2021-01-20 10:00:00 7.6 12 Sudeste 51 Sudeste 3.8 -- -- 93
2021-01-20 09:00:00 6.8 5 Nordeste 31 Este 2.6 -- -- 91
2021-01-20 08:00:00 7.2 9 Sudoeste 40 Sudeste 4.6 -- -- 87
2021-01-20 07:00:00 7.5 9 Sur 41 Sudoeste 6.6 -- -- 85
2021-01-20 06:00:00 7.7 11 Sudeste 38 Este 5.2 -- -- 87
2021-01-20 05:00:00 7.9 5 Este 44 Este 1.2 -- -- 84
2021-01-20 04:00:00 8.2 23 Este 53 Este 0 -- -- 78
2021-01-20 03:00:00 8.3 9 Sudeste 32 Este 0 -- -- 76
2021-01-20 02:00:00 8.5 5 Sudeste 28 Sudoeste 0 -- -- 73
2021-01-20 01:00:00 8.5 14 Este 33 Este 0 -- -- 71
2021-01-20 00:00:00 8.5 6 Norte 22 Este 0 -- -- 71
2021-01-19 23:00:00 8.7 6 Sudeste 28 Sudeste 0 -- -- 69
2021-01-19 22:00:00 8.7 10 Este 27 Este 0 -- -- 69
2021-01-19 21:00:00 8.4 4 Nordeste 15 Este 0 -- -- 73
2021-01-19 20:00:00 8.2 3 Norte 31 Este 0 -- -- 74
2021-01-19 19:00:00 8.5 6 Este 18 Oeste 0 -- -- 72
2021-01-19 18:00:00 8.7 7 Oeste 23 Oeste 0 -- -- 70
2021-01-19 17:00:00 9.1 12 Sudoeste 23 Oeste 0 -- -- 67
2021-01-19 16:00:00 9.8 12 Oeste 24 Oeste 0 -- -- 62
2021-01-19 15:00:00 9.9 4 Norte 23 Este 0 -- -- 63
2021-01-19 14:00:00 9.6 10 Este 21 Oeste 0 -- -- 62
2021-01-19 13:00:00 9.5 4 Sur 18 Sudeste 0 -- -- 64
2021-01-19 12:00:00 6 3 Noroeste 11 Oeste 0 -- -- 88
2021-01-19 11:00:00 1 2 Sudoeste 6 Sudoeste 0 -- -- 96
2021-01-19 10:00:00 -2.4 0 Calma 4 Norte 0 -- -- 98
2021-01-19 09:00:00 -3.5 0 Calma 8 Norte 0 -- -- 96
2021-01-19 08:00:00 -3.8 3 Oeste 7 Norte 0 -- -- 95
2021-01-19 07:00:00 -3.4 0 Calma 5 Noroeste 0 -- -- 95
2021-01-19 06:00:00 -3.2 0 Calma 5 Norte 0 -- -- 95
2021-01-19 05:00:00 -2.8 0 Calma 4 Norte 0 -- -- 95
2021-01-19 04:00:00 -2.7 0 Calma 5 Este 0 -- -- 95
2021-01-19 03:00:00 -2.3 0 Calma 5 Sur 0 -- -- 95
2021-01-19 02:00:00 -1.9 0 Calma 5 Noroeste 0 -- -- 94
2021-01-19 01:00:00 -1.8 0 Calma 3 Sur 0 -- -- 94
2021-01-19 00:00:00 -1.1 0 Calma 4 Norte 0 -- -- 93
2021-01-18 23:00:00 -0.4 2 Norte 4 Norte 0 -- -- 91
2021-01-18 22:00:00 1.2 3 Noroeste 5 Oeste 0 -- -- 90
2021-01-18 21:00:00 2.7 2 Oeste 5 Oeste 0 -- -- 87
2021-01-18 20:00:00 4.4 2 Noroeste 7 Oeste 0 -- -- 82
2021-01-18 19:00:00 6.7 4 Noroeste 9 Oeste 0 -- -- 76
2021-01-18 18:00:00 10.5 4 Oeste 7 Oeste 0 -- -- 66
2021-01-18 17:00:00 15.1 2 Sudoeste 11 Este 0 -- -- 53
2021-01-18 16:00:00 15.7 9 Este 16 Este 0 -- -- 47
2021-01-18 15:00:00 15.3 10 Este 17 Sudeste 0 -- -- 46
2021-01-18 14:00:00 14.3 3 Sur 9 Sudeste 0 -- -- 51
2021-01-18 13:00:00 11.4 2 Sudeste 8 Sudeste 0 -- -- 60
2021-01-18 12:00:00 6.2 3 Oeste 5 Oeste 0 -- -- 78
2021-01-18 11:00:00 1.4 0 Calma 4 Oeste 0 -- -- 96
2021-01-18 10:00:00 -2.4 0 Calma 2 Oeste 0 -- -- 96
2021-01-18 09:00:00 -3.4 0 Calma 3 Norte 0 -- -- 95
2021-01-18 08:00:00 -3.2 2 Norte 3 Norte 0 -- -- 94
2021-01-18 07:00:00 -3.1 0 Calma 2 Norte 0 -- -- 94
2021-01-18 06:00:00 -2.7 0 Calma 4 Norte 0 -- -- 94
2021-01-18 05:00:00 -2.2 3 Norte 4 Norte 0 -- -- 95
2021-01-18 04:00:00 -2.2 2 Noroeste 3 Noroeste 0 -- -- 94
2021-01-18 03:00:00 -2.1 0 Calma 3 Sudeste 0 -- -- 92
2021-01-18 02:00:00 -1.3 0 Calma 5 Noroeste 0 -- -- 91
2021-01-18 01:00:00 -0.4 0 Calma 6 Norte 0 -- -- 88
2021-01-18 00:00:00 0.3 3 Noroeste 5 Noroeste 0 -- -- 87
2021-01-17 23:00:00 0.6 3 Noroeste 7 Norte 0 -- -- 85
2021-01-17 22:00:00 1.7 3 Noroeste 7 Norte 0 -- -- 80
2021-01-17 21:00:00 2.6 2 Norte 8 Noroeste 0 -- -- 75
2021-01-17 20:00:00 4.3 5 Noroeste 10 Norte 0 -- -- 69
2021-01-17 19:00:00 7.2 4 Noroeste 14 Oeste 0 -- -- 59
2021-01-17 18:00:00 11.3 7 Oeste 15 Sudoeste 0 -- -- 43
2021-01-17 17:00:00 16.7 8 Sudoeste 14 Noroeste 0 -- -- 29
2021-01-17 16:00:00 18 4 Sudoeste 8 Sudoeste 0 -- -- 29
2021-01-17 15:00:00 17.2 3 Sur 9 Este 0 -- -- 28
2021-01-17 14:00:00 14.9 2 Sur 5 Oeste 0 -- -- 34
2021-01-17 13:00:00 10.5 3 Sudoeste 5 Sudoeste 0 -- -- 41
2021-01-17 12:00:00 4.4 0 Calma 4 Noroeste 0 -- -- 71
2021-01-17 11:00:00 -0.6 2 Oeste 5 Oeste 0 -- -- 89
2021-01-17 10:00:00 -4.1 0 Calma 2 Oeste 0 -- -- 96
2021-01-17 09:00:00 -5 0 Calma 3 Norte 0 -- -- 94
2021-01-17 08:00:00 -5 0 Calma 2 Norte 0 -- -- 94
2021-01-17 07:00:00 -4.7 0 Calma 2 Norte 0 -- -- 93
2021-01-17 06:00:00 -4.1 0 Calma 3 Noroeste 0 -- -- 93
2021-01-17 05:00:00 -3.8 0 Calma 3 Norte 0 -- -- 93
2021-01-17 04:00:00 -3.3 0 Calma 3 Noroeste 0 -- -- 93
2021-01-17 03:00:00 -3.3 0 Calma 2 Oeste 0 -- -- 92
2021-01-17 02:00:00 -2.8 0 Calma 3 Norte 0 -- -- 91
2021-01-17 01:00:00 -2 2 Noroeste 4 Norte 0 -- -- 90
2021-01-17 00:00:00 -1.3 2 Norte 5 Norte 0 -- -- 89
2021-01-16 23:00:00 -0.5 0 Calma 4 Noroeste 0 -- -- 87
2021-01-16 22:00:00 -0.1 0 Calma 4 Noroeste 0 -- -- 84
2021-01-16 21:00:00 1.1 2 Noroeste 4 Norte 0 -- -- 80
2021-01-16 20:00:00 3.1 2 Noroeste 4 Noroeste 0 -- -- 74
2021-01-16 19:00:00 5.8 3 Oeste 7 Oeste 0 -- -- 65
2021-01-16 18:00:00 9.8 5 Oeste 12 Sudoeste 0 -- -- 52
2021-01-16 17:00:00 15.5 6 Sudoeste 12 Sudoeste 0 -- -- 35
2021-01-16 16:00:00 17.7 4 Sur 17 Sudeste 0 -- -- 28
2021-01-16 15:00:00 17.1 8 Este 14 Este 0 -- -- 25
2021-01-16 14:00:00 15.6 4 Este 11 Este 0 -- -- 31
2021-01-16 13:00:00 11.5 2 Sudeste 5 Este 0 -- -- 57
2021-01-16 12:00:00 5.6 0 Calma 10 Sudoeste 0 -- -- 76
2021-01-16 11:00:00 -0.1 3 Oeste 7 Oeste 0 -- -- 90
2021-01-16 10:00:00 -3.5 0 Calma 5 Oeste 0 -- -- 96
2021-01-16 09:00:00 -4.8 0 Calma 5 Norte 0 -- -- 95
2021-01-16 08:00:00 -4.6 2 Noroeste 4 Norte 0 -- -- 94
2021-01-16 07:00:00 -4.5 0 Calma 5 Oeste 0 -- -- 94
2021-01-16 06:00:00 -4.2 2 Noroeste 6 Oeste 0 -- -- 94
2021-01-16 05:00:00 -3.9 2 Noroeste 5 Nordeste 0 -- -- 94
2021-01-16 04:00:00 -3.7 2 Noroeste 4 Norte 0 -- -- 94
2021-01-16 03:00:00 -3.3 0 Calma 6 Norte 0 -- -- 93
2021-01-16 02:00:00 -2.8 2 Oeste 7 Oeste 0 -- -- 93
2021-01-16 01:00:00 -3 2 Noroeste 4 Norte 0 -- -- 92
2021-01-16 00:00:00 -2.3 0 Calma 4 Norte 0 -- -- 90
2021-01-15 23:00:00 -1.9 2 Noroeste 5 Norte 0 -- -- 90
2021-01-15 22:00:00 -1.4 0 Calma 5 Nordeste 0 -- -- 86
2021-01-15 21:00:00 0.6 2 Noroeste 7 Noroeste 0 -- -- 82
2021-01-15 20:00:00 2.1 2 Noroeste 8 Oeste 0 -- -- 78
2021-01-15 19:00:00 5.2 3 Noroeste 10 Oeste 0 -- -- 68
2021-01-15 18:00:00 8.8 6 Oeste 10 Oeste 0 -- -- 56
2021-01-15 17:00:00 13.4 6 Sur 17 Sudoeste 0 -- -- 41
2021-01-15 16:00:00 14.9 10 Oeste 27 Oeste 0 -- -- 34
2021-01-15 15:00:00 14.3 15 Sudoeste 23 Sudoeste 0 -- -- 35
2021-01-15 14:00:00 14.1 4 Sudoeste 9 Sur 0 -- -- 39
2021-01-15 13:00:00 11.9 4 Sudoeste 8 Sudoeste 0 -- -- 45
2021-01-15 12:00:00 7.3 2 Sudoeste 6 Sudoeste 0 -- -- 75
2021-01-15 11:00:00 2 3 Oeste 6 Sudoeste 0 -- -- 92
2021-01-15 10:00:00 -1.6 3 Oeste 5 Oeste 0 -- -- 97
2021-01-15 09:00:00 -3.1 0 Calma 3 Norte 0 -- -- 95
2021-01-15 08:00:00 -3.1 0 Calma 3 Norte 0 -- -- 93
2021-01-15 07:00:00 -2.6 2 Noroeste 4 Norte 0 -- -- 94
2021-01-15 06:00:00 -2 0 Calma 5 Noroeste 0 -- -- 95
2021-01-15 05:00:00 -2.2 0 Calma 4 Norte 0 -- -- 94
2021-01-15 04:00:00 -2.4 0 Calma 3 Noroeste 0 -- -- 92
2021-01-15 03:00:00 -2.4 0 Calma 4 Noroeste 0 -- -- 90
2021-01-15 02:00:00 -1.8 0 Calma 4 Norte 0 -- -- 87
2021-01-15 01:00:00 -1.5 2 Noroeste 5 Noroeste 0 -- -- 85
2021-01-15 00:00:00 -0.7 2 Noroeste 9 Noroeste 0 -- -- 79
2021-01-14 23:00:00 -0.4 2 Norte 10 Norte 0 -- -- 74
2021-01-14 22:00:00 0.1 3 Noroeste 8 Norte 0 -- -- 74
2021-01-14 21:00:00 1 4 Noroeste 8 Norte 0 -- -- 70
2021-01-14 20:00:00 3.4 2 Noroeste 10 Norte 0 -- -- 62
2021-01-14 19:00:00 7.2 4 Noroeste 25 Oeste 0 -- -- 52
2021-01-14 18:00:00 11.4 12 Sudoeste 35 Oeste 0 -- -- 40
2021-01-14 17:00:00 13.4 15 Oeste 32 Oeste 0 -- -- 39
2021-01-14 16:00:00 16.7 6 Oeste 16 Oeste 0 -- -- 30
2021-01-14 15:00:00 15.7 4 Sudeste 12 Este 0 -- -- 31
2021-01-14 14:00:00 14.8 2 Sur 6 Sudoeste 0 -- -- 34
2021-01-14 13:00:00 10.9 3 Sudoeste 5 Oeste 0 -- -- 46
2021-01-14 12:00:00 5.2 0 Calma 3 Oeste 0 -- -- 66
2021-01-14 11:00:00 0 0 Calma 5 Noroeste 0 -- -- 87
2021-01-14 10:00:00 -4.1 0 Calma 4 Noroeste 0 -- -- 96
2021-01-14 09:00:00 -5.7 0 Calma 2 Norte 0 -- -- 93
2021-01-14 08:00:00 -5.6 0 Calma 4 Noroeste 0 -- -- 93
2021-01-14 07:00:00 -5.3 0 Calma 2 Noroeste 0 -- -- 93
2021-01-14 06:00:00 -5.2 0 Calma 3 Norte 0 -- -- 93
2021-01-14 05:00:00 -4.9 0 Calma 2 Norte 0 -- -- 92
2021-01-14 04:00:00 -4.6 0 Calma 3 Noroeste 0 -- -- 92
2021-01-14 03:00:00 -4.2 0 Calma 2 Este 0 -- -- 91
2021-01-14 02:00:00 -3.9 0 Calma 2 Sudeste 0 -- -- 90
2021-01-14 01:00:00 -3.4 0 Calma 2 Noroeste 0 -- -- 89
2021-01-14 00:00:00 -2.5 0 Calma 4 Noroeste 0 -- -- 86
2021-01-13 23:00:00 -1.1 2 Noroeste 6 Norte 0 -- -- 82
2021-01-13 22:00:00 -0.4 3 Norte 9 Norte 0 -- -- 78
2021-01-13 21:00:00 0.7 5 Norte 9 Norte 0 -- -- 76
2021-01-13 20:00:00 2.4 5 Norte 10 Norte 0 -- -- 71
2021-01-13 19:00:00 5.6 4 Norte 10 Norte 0 -- -- 63
2021-01-13 18:00:00 9.9 5 Oeste 12 Sudoeste 0 -- -- 48
2021-01-13 17:00:00 15.5 4 Sur 20 Oeste 0 -- -- 36
2021-01-13 16:00:00 16.7 8 Oeste 17 Norte 0 -- -- 32
2021-01-13 15:00:00 16 9 Oeste 21 Oeste 0 -- -- 31
2021-01-13 14:00:00 13.4 3 Sur 6 Sudeste 0 -- -- 37
2021-01-13 13:00:00 9.2 0 Calma 5 Noroeste 0 -- -- 49
2021-01-13 12:00:00 2.8 2 Oeste 4 Noroeste 0 -- -- 73
2021-01-13 11:00:00 -1.5 2 Noroeste 4 Oeste 0 -- -- 90
2021-01-13 10:00:00 -4.7 0 Calma 3 Noroeste 0 -- -- 96
2021-01-13 09:00:00 -5.9 2 Norte 3 Oeste 0 -- -- 94
2021-01-13 08:00:00 -5.9 2 Noroeste 3 Noroeste 0 -- -- 95
2021-01-13 07:00:00 -6.1 0 Calma 3 Norte 0 -- -- 93
2021-01-13 06:00:00 -5.6 2 Noroeste 4 Noroeste 0 -- -- 93
2021-01-13 05:00:00 -4.9 0 Calma 4 Oeste 0 -- -- 93
2021-01-13 04:00:00 -5 0 Calma 5 Noroeste 0 -- -- 93
2021-01-13 03:00:00 -4.9 0 Calma 4 Norte 0 -- -- 93
2021-01-13 02:00:00 -4.3 0 Calma 5 Oeste 0 -- -- 92
2021-01-13 01:00:00 -4 0 Calma 3 Norte 0 -- -- 92
2021-01-13 00:00:00 -3.3 0 Calma 4 Norte 0 -- -- 92
2021-01-12 23:00:00 -3.1 0 Calma 4 Norte 0 -- -- 90
2021-01-12 22:00:00 -2.4 0 Calma 4 Norte 0 -- -- 89
2021-01-12 21:00:00 -1.4 0 Calma 3 Noroeste 0 -- -- 87
2021-01-12 20:00:00 0.2 0 Calma 5 Oeste 0 -- -- 81
2021-01-12 19:00:00 2.4 2 Noroeste 4 Oeste 0 -- -- 75
2021-01-12 18:00:00 6.2 3 Oeste 8 Oeste 0 -- -- 62
2021-01-12 17:00:00 10.1 0 Calma 11 Sudeste 0 -- -- 51
2021-01-12 16:00:00 11.3 6 Sudeste 15 Este 0 -- -- 43
2021-01-12 15:00:00 11.4 7 Este 14 Este 0 -- -- 37
2021-01-12 14:00:00 9.5 4 Sudeste 9 Este 0 -- -- 45
2021-01-12 13:00:00 6.6 0 Calma 7 Sudoeste 0 -- -- 53
2021-01-12 12:00:00 2.1 4 Sudoeste 8 Sudoeste 0 -- -- 65
2021-01-12 11:00:00 -1.8 0 Calma 6 Sudeste 0 -- -- 88
2021-01-12 10:00:00 -5.2 2 Oeste 4 Oeste 0 -- -- 96
2021-01-12 09:00:00 -6.5 0 Calma 3 Oeste 0 -- -- 94
2021-01-12 08:00:00 -6 0 Calma 5 Norte 0 -- -- 94
2021-01-12 07:00:00 -6.1 0 Calma 5 Norte 0 -- -- 93
2021-01-12 06:00:00 -5.8 0 Calma 4 Norte 0 -- -- 93
2021-01-12 05:00:00 -5.2 0 Calma 6 Noroeste 0 -- -- 92
2021-01-12 04:00:00 -4.7 2 Noroeste 6 Norte 0 -- -- 92
2021-01-12 03:00:00 -4.2 2 Noroeste 8 Oeste 0 -- -- 91
2021-01-12 02:00:00 -4 2 Noroeste 5 Norte 0 -- -- 89
2021-01-12 01:00:00 -3.6 3 Norte 6 Noroeste 0 -- -- 88
2021-01-12 00:00:00 -3.3 0 Calma 7 Noroeste 0 -- -- 87
2021-01-11 23:00:00 -3.3 2 Norte 9 Norte 0 -- -- 87
2021-01-11 22:00:00 -3.2 0 Calma 7 Norte 0 -- -- 85
2021-01-11 21:00:00 -2.2 2 Norte 6 Norte 0 -- -- 81
2021-01-11 20:00:00 -0.9 2 Noroeste 6 Norte 0 -- -- 76
2021-01-11 19:00:00 1.2 0 Calma 11 Este 0 -- -- 68
2021-01-11 18:00:00 3.5 4 Sudeste 23 Este 0 -- -- 59
2021-01-11 17:00:00 5.5 13 Sudeste 33 Sudeste 0 -- -- 51
2021-01-11 16:00:00 6.4 6 Este 28 Este 0 -- -- 48
2021-01-11 15:00:00 6.6 12 Este 33 Este 0 -- -- 47
2021-01-11 14:00:00 6.5 14 Sudeste 28 Este 0 -- -- 47
2021-01-11 13:00:00 5.6 16 Sudeste 44 Este 0 -- -- 50
2021-01-11 12:00:00 4.5 21 Este 41 Este 0 -- -- 53
2021-01-11 11:00:00 4 18 Sudeste 36 Este 0 -- -- 54
2021-01-11 10:00:00 2.8 13 Este 30 Sudeste 0 -- -- 58
2021-01-11 09:00:00 1.5 3 Oeste 41 Sudeste 0 -- -- 63
2021-01-11 08:00:00 2.3 11 Este 36 Sudeste 0 -- -- 59
2021-01-11 07:00:00 2.3 8 Este 32 Sudeste 0 -- -- 58
2021-01-11 06:00:00 2.5 6 Noroeste 28 Norte 0 -- -- 58
2021-01-11 05:00:00 2.4 9 Este 35 Este 0 -- -- 58
2021-01-11 04:00:00 2.4 4 Sudoeste 34 Este 0 -- -- 58
2021-01-11 03:00:00 2.5 10 Este 27 Nordeste 0 -- -- 58
2021-01-11 02:00:00 2.2 7 Nordeste 40 Este 0 -- -- 58
2021-01-11 01:00:00 2.3 9 Nordeste 37 Sudeste 0 -- -- 59
2021-01-11 00:00:00 2.7 8 Nordeste 33 Nordeste 0 -- -- 58
2021-01-10 23:00:00 3.2 7 Este 26 Este 0 -- -- 61
2021-01-10 22:00:00 3.6 7 Este 21 Este 0 -- -- 62
2021-01-10 21:00:00 3.3 3 Nordeste 21 Este 0 -- -- 64
2021-01-10 20:00:00 3.8 4 Este 25 Sudeste 0 -- -- 64
2021-01-10 19:00:00 4.3 6 Nordeste 27 Norte 0 -- -- 61
2021-01-10 18:00:00 4.5 5 Nordeste 22 Sudeste 0 -- -- 61
2021-01-10 17:00:00 4.6 6 Nordeste 18 Nordeste 0 -- -- 60
2021-01-10 16:00:00 4.7 6 Este 27 Sudeste 0 -- -- 62
2021-01-10 15:00:00 4.7 8 Nordeste 23 Nordeste 0 -- -- 60
2021-01-10 14:00:00 4.5 9 Este 35 Este 0 -- -- 64
2021-01-10 13:00:00 4.3 7 Nordeste 24 Sudeste 0 -- -- 64
2021-01-10 12:00:00 4.2 10 Este 25 Sudeste 0 -- -- 67
2021-01-10 11:00:00 2.6 3 Oeste 8 Oeste 0 -- -- 79
2021-01-10 10:00:00 -0.6 2 Noroeste 8 Noroeste 0 -- -- 92
2021-01-10 09:00:00 -2.2 6 Oeste 15 Sudoeste 0 -- -- 94
2021-01-10 08:00:00 -4 3 Norte 5 Noroeste 0 -- -- 95
2021-01-10 07:00:00 -4 2 Norte 6 Norte 0 -- -- 94
2021-01-10 06:00:00 -3.7 0 Calma 4 Norte 0 -- -- 93
2021-01-10 05:00:00 -3.1 2 Norte 5 Norte 0 -- -- 93
2021-01-10 04:00:00 -2.6 0 Calma 5 Norte 0 -- -- 90
2021-01-10 03:00:00 -1.1 0 Calma 5 Sudoeste 0 -- -- 87
2021-01-10 02:00:00 0.1 0 Calma 3 Norte 0 -- -- 85
2021-01-10 01:00:00 0.3 0 Calma 2 Norte 0 -- -- 85
2021-01-10 00:00:00 0.5 0 Calma 3 Norte 0 -- -- 82
2021-01-09 23:00:00 0.7 0 Calma 4 Norte 0 -- -- 79
2021-01-09 22:00:00 0.8 4 Norte 5 Norte 0 -- -- 77
2021-01-09 21:00:00 1.4 2 Este 14 Sudeste 0 -- -- 73
2021-01-09 20:00:00 1.6 4 Este 9 Este 0 -- -- 70
2021-01-09 19:00:00 1.8 0 Calma 9 Nordeste 0 -- -- 70
2021-01-09 18:00:00 2.4 0 Calma 17 Norte 0 -- -- 65
2021-01-09 17:00:00 2.6 2 Sudoeste 13 Sudeste 0 -- -- 66
2021-01-09 16:00:00 2.7 5 Sudeste 17 Este 0 -- -- 65
2021-01-09 15:00:00 2.7 2 Este 18 Nordeste 0 -- -- 63
2021-01-09 14:00:00 2.5 10 Nordeste 18 Nordeste 0 -- -- 63
2021-01-09 13:00:00 2.6 5 Norte 17 Norte 0 -- -- 63
2021-01-09 12:00:00 2.3 5 Nordeste 21 Este 0 -- -- 65
2021-01-09 11:00:00 1.8 3 Este 25 Norte 0 -- -- 69
2021-01-09 10:00:00 1.6 4 Este 29 Norte 0 -- -- 70
2021-01-09 09:00:00 1.6 6 Nordeste 17 Nordeste 0 -- -- 71
2021-01-09 08:00:00 1.7 5 Nordeste 21 Este 0 -- -- 69
2021-01-09 07:00:00 1.7 2 Norte 13 Nordeste 0 -- -- 70
2021-01-09 06:00:00 1.7 5 Nordeste 11 Nordeste 0 -- -- 71
2021-01-09 05:00:00 1.6 4 Nordeste 10 Sudeste 0 -- -- 75
2021-01-09 04:00:00 1.5 0 Calma 5 Norte 0 -- -- 82
2021-01-09 03:00:00 1.6 0 Calma 10 Nordeste 0 -- -- 79
2021-01-09 02:00:00 0.8 0 Calma 4 Noroeste 0 -- -- 88
2021-01-09 01:00:00 0.5 0 Calma 3 Sudoeste 0 -- -- 86
2021-01-09 00:00:00 1.4 0 Calma 5 Este 0 -- -- 83
2021-01-08 23:00:00 2.5 0 Calma 4 Este 0 -- -- 78
2021-01-08 22:00:00 2.9 0 Calma 7 Norte 0 -- -- 74
2021-01-08 21:00:00 2.8 0 Calma 8 Oeste 0 -- -- 73
2021-01-08 20:00:00 2.7 0 Calma 12 Este 0 -- -- 71
2021-01-08 19:00:00 3.3 4 Este 12 Este 0 -- -- 67
2021-01-08 18:00:00 3.8 6 Sudeste 15 Sudeste 0 -- -- 63
2021-01-08 17:00:00 4.1 0 Calma 9 Este 0 -- -- 61
2021-01-08 16:00:00 4.2 5 Este 15 Sudeste 0 -- -- 59
2021-01-08 15:00:00 4.3 6 Este 13 Este 0 -- -- 60
2021-01-08 14:00:00 3.8 4 Este 14 Este 0 -- -- 60
2021-01-08 13:00:00 2.6 8 Este 12 Este 0 -- -- 61
2021-01-08 12:00:00 0.7 0 Calma 4 Noroeste 0 -- -- 80
2021-01-08 11:00:00 -1.3 0 Calma 4 Oeste 0 -- -- 87
2021-01-08 10:00:00 -3.4 0 Calma 5 Norte 0 -- -- 92
2021-01-08 09:00:00 -3.5 0 Calma 4 Este 0 -- -- 90
2021-01-08 08:00:00 -2.8 2 Noroeste 7 Este 0 -- -- 89
2021-01-08 07:00:00 -3.1 3 Nordeste 10 Nordeste 0 -- -- 89
2021-01-08 06:00:00 -3.6 3 Noroeste 8 Nordeste 0 -- -- 91
2021-01-08 05:00:00 -4 2 Norte 9 Norte 0 -- -- 92
2021-01-08 04:00:00 -3.8 4 Noroeste 9 Norte 0 -- -- 92
2021-01-08 03:00:00 -3.5 4 Noroeste 9 Noroeste 0 -- -- 92
2021-01-08 02:00:00 -3.3 2 Noroeste 8 Noroeste 0 -- -- 91
2021-01-08 01:00:00 -3 3 Norte 8 Norte 0 -- -- 91
2021-01-08 00:00:00 -2.9 0 Calma 7 Sudoeste 0 -- -- 90
2021-01-07 23:00:00 -2.3 4 Noroeste 8 Oeste 0 -- -- 90
2021-01-07 22:00:00 -2 4 Noroeste 8 Oeste 0 -- -- 90
2021-01-07 21:00:00 -1.3 2 Noroeste 5 Noroeste 0 -- -- 87
2021-01-07 20:00:00 0.2 2 Noroeste 8 Oeste 0 -- -- 83
2021-01-07 19:00:00 2.4 3 Oeste 8 Oeste 0 -- -- 76
2021-01-07 18:00:00 4.6 2 Sur 11 Sudoeste 0 -- -- 67
2021-01-07 17:00:00 7.5 5 Sudoeste 14 Oeste 0 -- -- 52
2021-01-07 16:00:00 9.3 4 Sudoeste 18 Oeste 0 -- -- 44
2021-01-07 15:00:00 8.8 5 Sur 12 Sur 0 -- -- 46
2021-01-07 14:00:00 6.9 8 Sudeste 18 Este 0 -- -- 50
2021-01-07 13:00:00 5.2 8 Este 13 Sudeste 0 -- -- 56
2021-01-07 12:00:00 2.2 4 Sudeste 8 Este 0 -- -- 76
2021-01-07 11:00:00 -2 0 Calma 3 Este 0 -- -- 96
2021-01-07 10:00:00 -3 0 Calma 3 Nordeste 0 -- -- 96
2021-01-07 09:00:00 -3.4 0 Calma 3 Norte 0 -- -- 96
2021-01-07 08:00:00 -3.8 0 Calma 3 Oeste 0 -- -- 95
2021-01-07 07:00:00 -3.9 0 Calma 5 Sudeste 0 -- -- 94
2021-01-07 06:00:00 -3.1 0 Calma 9 Oeste 0 -- -- 94
2021-01-07 05:00:00 -3.8 0 Calma 4 Noroeste 0 -- -- 95
2021-01-07 04:00:00 -3.7 0 Calma 2 Este 0 -- -- 94
2021-01-07 03:00:00 -3.6 0 Calma 3 Sudeste 0 -- -- 94
2021-01-07 02:00:00 -3.7 0 Calma 3 Noroeste 0 -- -- 93
2021-01-07 01:00:00 -3.6 0 Calma 3 Norte 0 -- -- 93
2021-01-07 00:00:00 -3.2 0 Calma 3 Norte 0 -- -- 91
2021-01-06 23:00:00 -2.7 0 Calma 6 Nordeste 0 -- -- 90
2021-01-06 22:00:00 -2.2 2 Norte 4 Norte 0 -- -- 88
2021-01-06 21:00:00 -1.8 3 Noroeste 5 Noroeste 0 -- -- 85
2021-01-06 20:00:00 -1 2 Noroeste 5 Noroeste 0 -- -- 81
2021-01-06 19:00:00 0.6 3 Oeste 8 Oeste 0 -- -- 74
2021-01-06 18:00:00 3.7 5 Oeste 10 Oeste 0 -- -- 61
2021-01-06 17:00:00 7.6 4 Sudoeste 12 Sur 0 -- -- 45
2021-01-06 16:00:00 9.3 4 Sur 8 Sur 0 -- -- 43
2021-01-06 15:00:00 8.1 4 Sudeste 13 Este 0 -- -- 43
2021-01-06 14:00:00 7.1 4 Sudeste 11 Este 0 -- -- 47
2021-01-06 13:00:00 4.4 2 Sudoeste 5 Sudeste 0 -- -- 66
2021-01-06 12:00:00 0.8 2 Sur 4 Sudoeste 0 -- -- 84
2021-01-06 11:00:00 -2.5 0 Calma 3 Noroeste 0 -- -- 96
2021-01-06 10:00:00 -5.9 0 Calma 3 Norte 0 -- -- 96
2021-01-06 09:00:00 -6.8 0 Calma 2 Noroeste 0 -- -- 94
2021-01-06 08:00:00 -6.6 0 Calma 2 Norte 0 -- -- 94
2021-01-06 07:00:00 -6.2 0 Calma 2 Norte 0 -- -- 94
2021-01-06 06:00:00 -6 0 Calma 2 Sudeste 0 -- -- 94
2021-01-06 05:00:00 -5.7 2 Norte 3 Norte 0 -- -- 94
2021-01-06 04:00:00 -5.5 0 Calma 3 Norte 0 -- -- 93
2021-01-06 03:00:00 -5.1 0 Calma 3 Norte 0 -- -- 94
2021-01-06 02:00:00 -4.4 0 Calma 3 Oeste 0 -- -- 93
2021-01-06 01:00:00 -4.1 0 Calma 4 Norte 0 -- -- 94
2021-01-06 00:00:00 -3.4 0 Calma 4 Norte 0 -- -- 93
2021-01-05 23:00:00 -3.2 0 Calma 4 Noroeste 0 -- -- 92
2021-01-05 22:00:00 -2.6 0 Calma 6 Noroeste 0 -- -- 91
2021-01-05 21:00:00 -2 3 Oeste 5 Oeste 0 -- -- 90
2021-01-05 20:00:00 -1.1 2 Norte 4 Norte 0 -- -- 84
2021-01-05 19:00:00 0.7 2 Noroeste 8 Oeste 0 -- -- 78
2021-01-05 18:00:00 3.4 4 Oeste 9 Oeste 0 -- -- 69
2021-01-05 17:00:00 8 2 Sudoeste 8 Sur 0 -- -- 53
2021-01-05 16:00:00 9.1 2 Sudeste 8 Sudeste 0 -- -- 45
2021-01-05 15:00:00 8.8 2 Sur 7 Sudeste 0 -- -- 40
2021-01-05 14:00:00 7.4 3 Sudoeste 6 Sudeste 0 -- -- 48
2021-01-05 13:00:00 4.9 4 Sudoeste 6 Sudoeste 0 -- -- 67
2021-01-05 12:00:00 1.5 0 Calma 4 Oeste 0.2 -- -- 84
2021-01-05 11:00:00 -1.5 0 Calma 2 Sudeste 0 -- -- 96
2021-01-05 10:00:00 -4.7 0 Calma 3 Norte 0 -- -- 97
2021-01-05 09:00:00 -5.5 0 Calma 3 Norte 0 -- -- 95
2021-01-05 08:00:00 -5.2 0 Calma 3 Nordeste 0 -- -- 95
2021-01-05 07:00:00 -4.7 2 Noroeste 4 Norte 0 -- -- 96
2021-01-05 06:00:00 -4.6 0 Calma 4 Norte 0 -- -- 95
2021-01-05 05:00:00 -3.8 0 Calma 5 Norte 0 -- -- 95
2021-01-05 04:00:00 -3.7 3 Norte 5 Norte 0 -- -- 95
2021-01-05 03:00:00 -3.5 0 Calma 4 Norte 0 -- -- 95
2021-01-05 02:00:00 -3.3 0 Calma 3 Nordeste 0 -- -- 95
2021-01-05 01:00:00 -2.9 0 Calma 6 Oeste 0 -- -- 94
2021-01-05 00:00:00 -2.6 0 Calma 5 Norte 0 -- -- 94
2021-01-04 23:00:00 -2.1 0 Calma 8 Noroeste 0 -- -- 93
2021-01-04 22:00:00 -1.3 3 Noroeste 7 Norte 0 -- -- 91
2021-01-04 21:00:00 -0.3 2 Noroeste 8 Norte 0 -- -- 89
2021-01-04 20:00:00 0.8 2 Norte 6 Noroeste 0 -- -- 85
2021-01-04 19:00:00 1.6 2 Noroeste 7 Norte 0 -- -- 82
2021-01-04 18:00:00 3.9 4 Norte 7 Norte 0 -- -- 76
2021-01-04 17:00:00 6 3 Sudoeste 14 Sur 0 -- -- 64
2021-01-04 16:00:00 7.4 11 Sudoeste 25 Oeste 0 -- -- 55
2021-01-04 15:00:00 7.4 7 Sudoeste 18 Sudoeste 0 -- -- 54
2021-01-04 14:00:00 6.6 9 Oeste 22 Oeste 0 -- -- 57
2021-01-04 13:00:00 5.8 9 Oeste 21 Oeste 0 -- -- 63
2021-01-04 12:00:00 4.9 5 Oeste 15 Noroeste 0 -- -- 70
2021-01-04 11:00:00 4.5 3 Noroeste 13 Noroeste 0 -- -- 76
2021-01-04 10:00:00 3.6 4 Oeste 10 Noroeste 0 -- -- 84
2021-01-04 09:00:00 3.2 3 Noroeste 14 Sudoeste 0 -- -- 85
2021-01-04 08:00:00 3.5 6 Sudoeste 17 Oeste 0 -- -- 84
2021-01-04 07:00:00 3.1 0 Calma 7 Noroeste 0 -- -- 94
2021-01-04 06:00:00 3 0 Calma 3 Norte 0 -- -- 95
2021-01-04 05:00:00 3 0 Calma 4 Norte 0 -- -- 95
2021-01-04 04:00:00 3 0 Calma 3 Norte 0 -- -- 94
2021-01-04 03:00:00 3.1 0 Calma 4 Noroeste 0.2 -- -- 93
2021-01-04 02:00:00 3.2 4 Norte 9 Noroeste 0 -- -- 89
2021-01-04 01:00:00 2 0 Calma 7 Oeste 0 -- -- 90
2021-01-04 00:00:00 1.7 0 Calma 5 Noroeste 0 -- -- 89
2021-01-03 23:00:00 1.7 3 Noroeste 9 Oeste 0 -- -- 86
2021-01-03 22:00:00 2 6 Oeste 14 Noroeste 0 -- -- 84
2021-01-03 21:00:00 0.5 2 Noroeste 8 Oeste 0 -- -- 87
2021-01-03 20:00:00 1.2 2 Noroeste 6 Norte 0 -- -- 85
2021-01-03 19:00:00 3.1 3 Norte 6 Norte 0 -- -- 80
2021-01-03 18:00:00 5.4 2 Norte 11 Sudoeste 0 -- -- 73
2021-01-03 17:00:00 6.5 6 Oeste 23 Sudoeste 0 -- -- 66
2021-01-03 16:00:00 7.9 12 Sudoeste 27 Oeste 0 -- -- 56
2021-01-03 15:00:00 7.1 14 Sudoeste 33 Oeste 0 -- -- 60
2021-01-03 14:00:00 5.9 19 Oeste 32 Sudoeste 0 -- -- 66
2021-01-03 13:00:00 5 13 Sudoeste 28 Oeste 0 -- -- 70
2021-01-03 12:00:00 4.8 5 Sudoeste 28 Oeste 0 -- -- 71
2021-01-03 11:00:00 2.5 12 Oeste 24 Noroeste 0 -- -- 80
2021-01-03 10:00:00 -0.6 8 Sudoeste 14 Sudoeste 0 -- -- 90
2021-01-03 09:00:00 -0.7 7 Oeste 14 Oeste 0 -- -- 89
2021-01-03 08:00:00 -0.9 5 Noroeste 22 Sudoeste 0 -- -- 90
2021-01-03 07:00:00 -1.9 3 Norte 12 Noroeste 0 -- -- 93
2021-01-03 06:00:00 -1.6 5 Noroeste 14 Sudoeste 0 -- -- 93
2021-01-03 05:00:00 -1.5 5 Norte 9 Norte 0 -- -- 90
2021-01-03 04:00:00 0 4 Oeste 19 Oeste 0 -- -- 87
2021-01-03 03:00:00 -1.6 4 Norte 9 Norte 0 -- -- 93
2021-01-03 02:00:00 -0.6 3 Noroeste 11 Sudoeste 0 -- -- 89
2021-01-03 01:00:00 0.6 7 Oeste 15 Sudoeste 0 -- -- 86
2021-01-03 00:00:00 2 9 Oeste 19 Oeste 0 -- -- 81
2021-01-02 23:00:00 -0.7 6 Oeste 11 Oeste 0 -- -- 92
2021-01-02 22:00:00 -0.9 4 Noroeste 8 Oeste 0 -- -- 89
2021-01-02 21:00:00 -0.6 3 Noroeste 8 Norte 0 -- -- 87
2021-01-02 20:00:00 0.5 4 Noroeste 8 Oeste 0 -- -- 81
2021-01-02 19:00:00 2.4 3 Noroeste 10 Sudoeste 0 -- -- 74
2021-01-02 18:00:00 5.3 3 Oeste 11 Oeste 0 -- -- 61
2021-01-02 17:00:00 7.4 7 Oeste 17 Sur 0 -- -- 49
2021-01-02 16:00:00 8.3 6 Norte 26 Oeste 0 -- -- 46
2021-01-02 15:00:00 7.7 7 Noroeste 26 Noroeste 0 -- -- 49
2021-01-02 14:00:00 7.1 11 Noroeste 31 Sudoeste 0 -- -- 50